Time;durP1;ratioP1;P1;durP2;ratioP2;P2;SDS_P1;SDS_P2;PMS_P1;PMS_P2;Temp;Humidity;BMP_temperature;BMP_pressure;BME280_temperature;BME280_humidity;BME280_pressure;Samples;Min_cycle;Max_cycle;Signal;HPM_P1;HPM_P2
2023/08/19 00:00:21;;;;;;;20.60;17.13;;;;;;;;;;4913687;29;20587;-76
2023/08/19 00:02:48;;;;;;;18.40;15.83;;;;;;;;;;4913303;29;20255;-76
2023/08/19 00:05:16;;;;;;;19.23;17.30;;;;;;;;;;4919067;29;20222;-76
2023/08/19 00:07:43;;;;;;;20.67;16.63;;;;;;;;;;4912257;29;20602;-76
2023/08/19 00:10:30;;;;;;;18.60;15.87;;;;;;;;;;4913330;29;20175;-76
2023/08/19 00:12:58;;;;;;;19.53;14.67;;;;;;;;;;4912740;29;20536;-76
2023/08/19 00:15:42;;;;;;;18.70;15.87;;;;;;;;;;4913111;29;20191;-76
2023/08/19 00:18:12;;;;;;;18.37;15.60;;;;;;;;;;4926039;29;20667;-76
2023/08/19 00:20:39;;;;;;;19.40;14.53;;;;;;;;;;4932294;29;20198;-76
2023/08/19 00:23:06;;;;;;;16.83;14.43;;;;;;;;;;4931021;29;20195;-77
2023/08/19 00:25:35;;;;;;;17.23;14.43;;;;;;;;;;4912788;29;20564;-76
2023/08/19 00:28:04;;;;;;;21.47;15.17;;;;;;;;;;4911914;29;20206;-76
2023/08/19 00:30:30;;;;;;;16.53;14.73;;;;;;;;;;4913228;29;20555;-76
2023/08/19 00:32:59;;;;;;;17.33;15.13;;;;;;;;;;4915211;29;20186;-75
2023/08/19 00:35:26;;;;;;;17.77;14.47;;;;;;;;;;4914700;29;20567;-75
2023/08/19 00:37:52;;;;;;;17.67;14.87;;;;;;;;;;4915162;29;20651;-76
2023/08/19 00:40:21;;;;;;;15.40;13.40;;;;;;;;;;4930675;29;20700;-76
2023/08/19 00:42:48;;;;;;;19.23;14.13;;;;;;;;;;4930414;29;20202;-76
2023/08/19 00:45:15;;;;;;;14.27;11.70;;;;;;;;;;4946558;29;20230;-75
2023/08/19 00:47:42;;;;;;;16.10;13.83;;;;;;;;;;4930604;29;20234;-75
2023/08/19 00:50:28;;;;;;;13.07;11.67;;;;;;;;;;4930665;29;20193;-76
2023/08/19 00:52:55;;;;;;;13.50;12.10;;;;;;;;;;4930735;29;20198;-76
2023/08/19 00:55:22;;;;;;;14.83;12.37;;;;;;;;;;4946113;29;20605;-76
2023/08/19 00:57:51;;;;;;;13.80;12.20;;;;;;;;;;4931452;29;20206;-76
2023/08/19 01:00:18;;;;;;;15.37;12.83;;;;;;;;;;4945282;28;20225;-75
2023/08/19 01:02:45;;;;;;;15.40;13.80;;;;;;;;;;4930632;29;20646;-75
2023/08/19 01:05:11;;;;;;;21.37;15.40;;;;;;;;;;4931617;29;21142;-76
2023/08/19 01:08:08;;;;;;;16.07;12.83;;;;;;;;;;4930814;29;20168;-76
2023/08/19 01:46:22;;;;;;;16.17;14.57;;;;;;;;;;4933975;29;20959;-76
2023/08/19 01:48:49;;;;;;;17.67;14.67;;;;;;;;;;4950048;28;20610;-76
2023/08/19 01:51:15;;;;;;;17.83;14.93;;;;;;;;;;4934762;29;20235;-75
2023/08/19 01:53:44;;;;;;;17.33;15.47;;;;;;;;;;4933475;29;20203;-76
2023/08/19 01:56:28;;;;;;;20.03;15.23;;;;;;;;;;4934342;29;20175;-76
2023/08/19 01:58:57;;;;;;;16.87;13.43;;;;;;;;;;4933356;29;20740;-76
2023/08/19 02:01:24;;;;;;;16.43;14.40;;;;;;;;;;4947532;28;20788;-76
2023/08/19 02:03:51;;;;;;;16.33;14.37;;;;;;;;;;4949431;29;20207;-76
2023/08/19 02:06:18;;;;;;;17.60;14.80;;;;;;;;;;4934238;29;20214;-76
2023/08/19 02:08:45;;;;;;;17.07;15.27;;;;;;;;;;4934830;29;20195;-76
2023/08/19 02:11:12;;;;;;;15.83;14.10;;;;;;;;;;4934024;29;20594;-75
2023/08/19 02:13:39;;;;;;;15.87;14.10;;;;;;;;;;4933151;29;20198;-75
2023/08/19 02:16:24;;;;;;;16.93;14.27;;;;;;;;;;4934037;29;20179;-76
2023/08/19 02:18:51;;;;;;;16.03;14.00;;;;;;;;;;4937695;28;20211;-76
2023/08/19 02:21:36;;;;;;;14.80;13.23;;;;;;;;;;4927067;29;20694;-76
2023/08/19 02:24:10;;;;;;;16.47;14.40;;;;;;;;;;4915138;29;20211;-76
2023/08/19 02:26:37;;;;;;;17.00;15.20;;;;;;;;;;4914901;29;20266;-76
2023/08/19 02:29:04;;;;;;;17.63;14.80;;;;;;;;;;4913710;29;20207;-76
2023/08/19 02:31:31;;;;;;;19.83;15.13;;;;;;;;;;4913811;29;20267;-76
2023/08/19 02:34:16;;;;;;;20.87;14.60;;;;;;;;;;4941350;29;20257;-76
2023/08/19 02:36:44;;;;;;;16.73;13.57;;;;;;;;;;4932309;29;20840;-76
2023/08/19 02:39:29;;;;;;;17.77;14.67;;;;;;;;;;4933716;29;20185;-76
2023/08/19 02:41:56;;;;;;;22.70;15.40;;;;;;;;;;4932340;29;20265;-76
2023/08/19 02:44:22;;;;;;;17.90;14.47;;;;;;;;;;4933632;29;20214;-75
2023/08/19 02:46:50;;;;;;;19.07;14.83;;;;;;;;;;4932428;29;20234;-76
2023/08/19 02:49:17;;;;;;;20.30;15.63;;;;;;;;;;4932854;29;20281;-75
2023/08/19 02:52:01;;;;;;;23.87;16.47;;;;;;;;;;4935065;29;21019;-75
2023/08/19 02:54:29;;;;;;;26.27;17.37;;;;;;;;;;4932002;29;20263;-76
2023/08/19 02:56:56;;;;;;;28.67;16.10;;;;;;;;;;4932114;29;20199;-76
2023/08/19 02:59:23;;;;;;;59.47;16.27;;;;;;;;;;4932073;29;20302;-76
2023/08/19 03:01:50;;;;;;;30.90;16.13;;;;;;;;;;4933261;29;20189;-76
2023/08/19 03:04:33;;;;;;;30.80;16.00;;;;;;;;;;4932774;29;20716;-77
2023/08/19 03:07:00;;;;;;;28.23;15.73;;;;;;;;;;4932609;29;20210;-76
2023/08/19 03:09:44;;;;;;;22.67;15.80;;;;;;;;;;4947873;29;20179;-77
2023/08/19 03:12:12;;;;;;;29.20;14.00;;;;;;;;;;4931689;29;20343;-76
2023/08/19 03:14:39;;;;;;;26.97;14.30;;;;;;;;;;4927848;29;20211;-76
2023/08/19 03:17:06;;;;;;;28.20;13.80;;;;;;;;;;4913706;29;20590;-76
2023/08/19 03:19:32;;;;;;;18.50;14.20;;;;;;;;;;4914671;29;20199;-76
2023/08/19 03:21:59;;;;;;;21.87;14.27;;;;;;;;;;4951600;28;20289;-76
2023/08/19 03:24:27;;;;;;;19.87;13.63;;;;;;;;;;4916097;29;20222;-76
2023/08/19 03:26:55;;;;;;;20.83;15.20;;;;;;;;;;4941031;29;20208;-76
2023/08/19 03:29:25;;;;;;;25.63;14.60;;;;;;;;;;4947126;29;20190;-76
2023/08/19 03:31:52;;;;;;;20.90;14.50;;;;;;;;;;4931775;29;20222;-75
2023/08/19 03:34:20;;;;;;;22.77;13.60;;;;;;;;;;4944949;29;20194;-76
2023/08/19 03:36:47;;;;;;;20.17;12.73;;;;;;;;;;4911745;29;20222;-75
2023/08/19 03:39:14;;;;;;;24.90;13.77;;;;;;;;;;4928257;29;20742;-76
2023/08/19 03:41:43;;;;;;;16.90;12.10;;;;;;;;;;4928162;29;21002;-77
2023/08/19 03:44:10;;;;;;;21.67;11.97;;;;;;;;;;4930709;29;20293;-77
2023/08/19 03:46:37;;;;;;;16.63;11.50;;;;;;;;;;4936870;28;20237;-76
2023/08/19 03:49:04;;;;;;;17.00;11.93;;;;;;;;;;4932656;29;20205;-77
2023/08/19 03:51:33;;;;;;;16.37;11.13;;;;;;;;;;4921980;29;20655;-76
2023/08/19 03:53:59;;;;;;;13.47;10.70;;;;;;;;;;4906466;29;20203;-76
2023/08/19 03:56:26;;;;;;;18.10;11.07;;;;;;;;;;4930800;29;20871;-77
2023/08/19 03:58:56;;;;;;;13.07;10.73;;;;;;;;;;4945914;29;20206;-76
2023/08/19 04:01:24;;;;;;;14.10;10.47;;;;;;;;;;4929969;29;20195;-76
2023/08/19 04:03:53;;;;;;;11.90;10.07;;;;;;;;;;4932515;29;20970;-76
2023/08/19 04:06:37;;;;;;;11.50;10.27;;;;;;;;;;4928118;29;20189;-77
2023/08/19 04:09:07;;;;;;;14.23;10.03;;;;;;;;;;4924990;29;20203;-76
2023/08/19 04:11:34;;;;;;;15.30;10.40;;;;;;;;;;4916387;29;20608;-76
2023/08/19 04:14:02;;;;;;;10.87;9.27;;;;;;;;;;4927656;29;20207;-77
2023/08/19 04:16:30;;;;;;;13.93;9.60;;;;;;;;;;4912625;29;20192;-76
2023/08/19 04:19:15;;;;;;;12.93;9.70;;;;;;;;;;4909198;29;20199;-77
2023/08/19 04:21:44;;;;;;;12.70;10.10;;;;;;;;;;4931597;29;20217;-80
2023/08/19 04:24:11;;;;;;;12.43;10.10;;;;;;;;;;4928615;29;21020;-79
2023/08/19 04:26:41;;;;;;;12.23;9.67;;;;;;;;;;4917532;29;20313;-80
2023/08/19 04:29:11;;;;;;;11.00;9.83;;;;;;;;;;4895832;29;20294;-79
2023/08/19 04:31:39;;;;;;;11.97;9.73;;;;;;;;;;4918563;29;20237;-76
2023/08/19 04:34:26;;;;;;;11.83;9.07;;;;;;;;;;4929374;29;20204;-75
2023/08/19 04:37:29;;;;;;;12.10;9.53;;;;;;;;;;4929168;29;20238;-76
2023/08/19 04:39:56;;;;;;;10.90;9.20;;;;;;;;;;4929298;29;20282;-74
2023/08/19 04:42:34;;;;;;;14.53;9.90;;;;;;;;;;4924835;29;20202;-77
2023/08/19 04:45:05;;;;;;;12.33;10.10;;;;;;;;;;4924727;29;20238;-76
2023/08/19 04:47:35;;;;;;;13.37;9.57;;;;;;;;;;4910721;29;20312;-76
2023/08/19 04:50:08;;;;;;;13.53;10.87;;;;;;;;;;4927933;29;20218;-78
2023/08/19 04:52:37;;;;;;;10.77;9.67;;;;;;;;;;4913426;29;20701;-77
2023/08/19 04:55:08;;;;;;;15.20;10.70;;;;;;;;;;4929528;29;20203;-77
2023/08/19 04:57:36;;;;;;;15.60;10.77;;;;;;;;;;4927090;29;20213;-76
2023/08/19 05:00:11;;;;;;;15.20;10.63;;;;;;;;;;4932339;29;20202;-75
2023/08/19 05:02:41;;;;;;;12.63;10.23;;;;;;;;;;4939098;29;20210;-78
2023/08/19 05:05:10;;;;;;;13.17;10.47;;;;;;;;;;4928425;29;20271;-76
2023/08/19 05:07:37;;;;;;;14.03;10.50;;;;;;;;;;4940598;29;20255;-76
2023/08/19 05:10:04;;;;;;;10.40;9.40;;;;;;;;;;4916982;29;20294;-77
2023/08/19 05:12:31;;;;;;;9.63;8.63;;;;;;;;;;4942840;28;20256;-75
2023/08/19 05:15:00;;;;;;;10.93;9.47;;;;;;;;;;4942660;29;20191;-77
2023/08/19 05:17:32;;;;;;;11.63;9.93;;;;;;;;;;4929168;29;20954;-72
2023/08/19 05:20:03;;;;;;;11.27;9.47;;;;;;;;;;4935792;28;20243;-73
2023/08/19 05:22:30;;;;;;;10.53;9.43;;;;;;;;;;4932551;28;20736;-73
2023/08/19 05:24:57;;;;;;;9.93;8.93;;;;;;;;;;4930914;29;20224;-73
2023/08/19 05:27:24;;;;;;;12.70;9.23;;;;;;;;;;4939026;29;20286;-75
2023/08/19 05:29:52;;;;;;;9.97;8.90;;;;;;;;;;4919087;29;20195;-78
2023/08/19 05:32:19;;;;;;;10.87;8.77;;;;;;;;;;4926929;29;20191;-80
2023/08/19 05:34:47;;;;;;;11.33;8.43;;;;;;;;;;4911914;29;20417;-74
2023/08/19 05:37:14;;;;;;;9.47;8.57;;;;;;;;;;4923508;29;20187;-76
2023/08/19 05:39:41;;;;;;;9.57;8.63;;;;;;;;;;4946935;29;20199;-76
2023/08/19 05:42:11;;;;;;;9.10;8.17;;;;;;;;;;4944962;29;20680;-75
2023/08/19 05:44:39;;;;;;;11.10;9.50;;;;;;;;;;4923793;29;20222;-73
2023/08/19 05:47:06;;;;;;;9.40;8.50;;;;;;;;;;4915765;29;20246;-73
2023/08/19 05:49:33;;;;;;;11.63;8.80;;;;;;;;;;4912397;29;20243;-73
2023/08/19 05:52:01;;;;;;;10.20;9.10;;;;;;;;;;4913250;29;20213;-74
2023/08/19 05:54:30;;;;;;;10.70;8.50;;;;;;;;;;4925210;29;21536;-76
2023/08/19 05:56:57;;;;;;;9.43;8.33;;;;;;;;;;4911824;29;20199;-74
2023/08/19 05:59:24;;;;;;;11.37;10.27;;;;;;;;;;4911673;29;20191;-74
2023/08/19 06:01:51;;;;;;;10.60;9.30;;;;;;;;;;4924044;29;20274;-73
2023/08/19 06:04:19;;;;;;;12.47;9.93;;;;;;;;;;4931448;29;20199;-74
2023/08/19 06:06:46;;;;;;;12.80;9.70;;;;;;;;;;4928341;29;20263;-74
2023/08/19 06:09:21;;;;;;;10.60;9.50;;;;;;;;;;4929654;29;20222;-75
2023/08/19 06:11:51;;;;;;;10.93;9.77;;;;;;;;;;4928794;29;20285;-75
2023/08/19 06:14:18;;;;;;;10.97;9.97;;;;;;;;;;4962264;28;20245;-75
2023/08/19 06:16:46;;;;;;;15.40;10.17;;;;;;;;;;4926494;28;20199;-75
2023/08/19 06:19:30;;;;;;;11.77;10.10;;;;;;;;;;4912009;29;20179;-75
2023/08/19 06:21:57;;;;;;;12.97;10.53;;;;;;;;;;4901681;28;20283;-75
2023/08/19 06:24:24;;;;;;;11.87;10.23;;;;;;;;;;4910637;29;20239;-75
2023/08/19 06:26:53;;;;;;;13.67;10.43;;;;;;;;;;4923761;29;20674;-76
2023/08/19 06:29:19;;;;;;;11.33;10.23;;;;;;;;;;4923062;29;20246;-75
2023/08/19 06:31:47;;;;;;;11.53;10.33;;;;;;;;;;4924836;29;20186;-76
2023/08/19 06:34:14;;;;;;;13.40;11.03;;;;;;;;;;4927221;29;20202;-75
2023/08/19 06:36:46;;;;;;;15.70;11.80;;;;;;;;;;4925030;29;20194;-75
2023/08/19 06:39:27;;;;;;;13.00;11.67;;;;;;;;;;4926871;29;20289;-75
2023/08/19 06:42:04;;;;;;;13.37;11.97;;;;;;;;;;4922877;29;20201;-75
2023/08/19 06:44:32;;;;;;;15.83;12.90;;;;;;;;;;4945275;29;20210;-76
2023/08/19 06:47:00;;;;;;;14.67;12.90;;;;;;;;;;4922566;29;20692;-75
2023/08/19 06:49:27;;;;;;;20.67;13.30;;;;;;;;;;4931337;29;20187;-74
2023/08/19 06:51:54;;;;;;;15.77;13.57;;;;;;;;;;4928999;29;20294;-75
2023/08/19 06:54:21;;;;;;;18.23;14.33;;;;;;;;;;4945746;29;20225;-74
2023/08/19 06:56:53;;;;;;;22.47;14.83;;;;;;;;;;4932927;29;20191;-74
2023/08/19 06:59:22;;;;;;;22.67;15.40;;;;;;;;;;4931865;29;20655;-74
2023/08/19 07:01:51;;;;;;;16.97;14.93;;;;;;;;;;4915394;29;20195;-74
2023/08/19 07:04:27;;;;;;;17.77;15.47;;;;;;;;;;4926788;29;20195;-74
2023/08/19 07:06:59;;;;;;;18.70;15.80;;;;;;;;;;4930193;29;20234;-75
2023/08/19 07:09:26;;;;;;;18.57;16.03;;;;;;;;;;4931511;29;20210;-74
2023/08/19 07:11:53;;;;;;;20.13;16.03;;;;;;;;;;4932782;29;20260;-75
2023/08/19 07:14:21;;;;;;;20.47;16.07;;;;;;;;;;4915840;29;20191;-75
2023/08/19 07:16:48;;;;;;;20.07;15.73;;;;;;;;;;4932605;29;20198;-75
2023/08/19 07:19:16;;;;;;;20.77;16.43;;;;;;;;;;4931594;29;20202;-75
2023/08/19 07:21:46;;;;;;;22.33;17.03;;;;;;;;;;4931904;29;20190;-75
2023/08/19 07:24:13;;;;;;;21.03;17.17;;;;;;;;;;4931367;29;20244;-75
2023/08/19 07:26:40;;;;;;;20.13;17.13;;;;;;;;;;4930940;29;20221;-75
2023/08/19 07:29:07;;;;;;;18.20;16.17;;;;;;;;;;4931126;29;20203;-75
2023/08/19 07:31:35;;;;;;;22.40;16.80;;;;;;;;;;4932340;29;20190;-75
2023/08/19 07:34:02;;;;;;;18.90;15.50;;;;;;;;;;4932185;29;20314;-75
2023/08/19 07:36:28;;;;;;;18.57;15.73;;;;;;;;;;4932336;29;20574;-75
2023/08/19 07:38:55;;;;;;;18.80;15.10;;;;;;;;;;4947047;29;20195;-75
2023/08/19 07:41:22;;;;;;;18.33;15.47;;;;;;;;;;4931614;29;20193;-75
2023/08/19 07:44:06;;;;;;;18.80;16.13;;;;;;;;;;4931001;29;20183;-75
2023/08/19 07:46:33;;;;;;;16.90;15.10;;;;;;;;;;4930300;29;20236;-75
2023/08/19 07:49:18;;;;;;;18.73;15.30;;;;;;;;;;4932458;29;20274;-75
2023/08/19 07:51:45;;;;;;;17.07;15.17;;;;;;;;;;4930895;29;20201;-75
2023/08/19 07:54:29;;;;;;;18.43;16.37;;;;;;;;;;4932139;29;20176;-75
2023/08/19 07:56:57;;;;;;;17.43;15.57;;;;;;;;;;4932230;29;20205;-75
2023/08/19 07:59:25;;;;;;;19.00;15.10;;;;;;;;;;4930819;29;20198;-75
2023/08/19 08:01:52;;;;;;;17.60;14.57;;;;;;;;;;4932682;29;20205;-77
2023/08/19 08:04:19;;;;;;;18.93;15.87;;;;;;;;;;4947204;29;20721;-76
2023/08/19 08:06:46;;;;;;;17.20;15.27;;;;;;;;;;4946240;29;20346;-76
2023/08/19 08:09:13;;;;;;;16.80;15.00;;;;;;;;;;4931679;29;20214;-78
2023/08/19 08:11:41;;;;;;;17.17;14.80;;;;;;;;;;4930772;29;20282;-74
2023/08/19 08:14:09;;;;;;;16.73;14.80;;;;;;;;;;4946204;29;20675;-74
2023/08/19 08:16:35;;;;;;;15.87;14.17;;;;;;;;;;4931934;29;20217;-74
2023/08/19 08:19:03;;;;;;;16.83;15.03;;;;;;;;;;4930502;29;20195;-74
2023/08/19 08:21:30;;;;;;;17.03;15.27;;;;;;;;;;4931713;29;20198;-72
2023/08/19 08:23:57;;;;;;;19.10;16.47;;;;;;;;;;4931609;29;20674;-77
2023/08/19 08:26:25;;;;;;;18.63;16.07;;;;;;;;;;4931643;29;20210;-71
2023/08/19 08:28:52;;;;;;;15.90;14.20;;;;;;;;;;4930740;29;20290;-72
2023/08/19 08:31:19;;;;;;;18.30;15.77;;;;;;;;;;4920356;29;20183;-75
2023/08/19 08:33:46;;;;;;;15.83;14.20;;;;;;;;;;4927615;29;20611;-75
2023/08/19 08:36:13;;;;;;;14.77;13.33;;;;;;;;;;4928902;29;20250;-73
2023/08/19 08:38:40;;;;;;;15.53;13.80;;;;;;;;;;4933372;29;20202;-74
2023/08/19 08:41:07;;;;;;;14.67;12.90;;;;;;;;;;4931922;29;20610;-74
2023/08/19 08:43:34;;;;;;;14.93;13.40;;;;;;;;;;4921719;29;20198;-74
2023/08/19 08:46:02;;;;;;;15.93;14.33;;;;;;;;;;4917900;29;20226;-74
2023/08/19 08:48:32;;;;;;;17.53;14.67;;;;;;;;;;4950333;29;20253;-73
2023/08/19 08:50:58;;;;;;;15.50;13.90;;;;;;;;;;4933853;29;20213;-73
2023/08/19 08:53:28;;;;;;;14.70;13.20;;;;;;;;;;4933228;29;20230;-75
2023/08/19 08:55:56;;;;;;;13.40;12.17;;;;;;;;;;4932640;29;20286;-75
2023/08/19 08:58:22;;;;;;;14.20;12.70;;;;;;;;;;4934504;29;20198;-76
2023/08/19 09:00:49;;;;;;;12.73;11.63;;;;;;;;;;4934525;29;20199;-76
2023/08/19 09:03:25;;;;;;;18.77;12.07;;;;;;;;;;4934221;29;20195;-78
2023/08/19 09:05:52;;;;;;;15.27;12.03;;;;;;;;;;4933614;29;20230;-75
2023/08/19 09:08:20;;;;;;;12.70;11.50;;;;;;;;;;4915484;29;20203;-75
2023/08/19 09:10:48;;;;;;;10.97;9.97;;;;;;;;;;4916467;29;20179;-75
2023/08/19 09:13:15;;;;;;;11.87;10.77;;;;;;;;;;4929998;28;20279;-74
2023/08/19 09:15:42;;;;;;;11.27;10.17;;;;;;;;;;4916603;29;20666;-75
2023/08/19 09:18:10;;;;;;;11.13;10.13;;;;;;;;;;4915361;29;20190;-75
2023/08/19 09:20:37;;;;;;;11.97;10.80;;;;;;;;;;4916413;29;20266;-74
2023/08/19 09:23:04;;;;;;;11.87;10.67;;;;;;;;;;4915392;29;20227;-75
2023/08/19 09:25:34;;;;;;;11.50;10.30;;;;;;;;;;4914592;29;20282;-76
2023/08/19 09:28:18;;;;;;;10.93;9.63;;;;;;;;;;4915623;29;20312;-75
2023/08/19 09:30:46;;;;;;;11.57;10.40;;;;;;;;;;4915315;29;20607;-76
2023/08/19 09:33:20;;;;;;;12.23;10.93;;;;;;;;;;4907696;29;20206;-75
2023/08/19 09:35:54;;;;;;;9.93;9.03;;;;;;;;;;4934191;29;20194;-76
2023/08/19 09:38:38;;;;;;;11.20;10.20;;;;;;;;;;4934104;29;20182;-76
2023/08/19 09:41:08;;;;;;;11.90;10.77;;;;;;;;;;4934713;29;20282;-76
2023/08/19 09:43:38;;;;;;;11.83;10.67;;;;;;;;;;4934556;29;20191;-75
2023/08/19 09:46:05;;;;;;;12.00;10.83;;;;;;;;;;4935213;29;20212;-76
2023/08/19 09:48:31;;;;;;;12.00;10.77;;;;;;;;;;4928772;29;20199;-75
2023/08/19 09:51:25;;;;;;;11.10;10.00;;;;;;;;;;4915515;29;20512;-75
2023/08/19 09:53:53;;;;;;;10.90;9.90;;;;;;;;;;4914472;29;20179;-76
2023/08/19 09:56:37;;;;;;;10.00;9.00;;;;;;;;;;4915849;29;20755;-76
2023/08/19 09:59:06;;;;;;;9.93;8.90;;;;;;;;;;4930012;29;20206;-76
2023/08/19 10:01:34;;;;;;;10.80;9.90;;;;;;;;;;4915593;29;20655;-75
2023/08/19 10:04:02;;;;;;;13.03;11.37;;;;;;;;;;4915497;29;20202;-75
2023/08/19 10:06:31;;;;;;;12.27;11.17;;;;;;;;;;4915517;29;20267;-76
2023/08/19 10:09:02;;;;;;;11.03;9.90;;;;;;;;;;4914385;29;20739;-75
2023/08/19 10:11:30;;;;;;;9.67;8.67;;;;;;;;;;4914259;29;20575;-75
2023/08/19 10:14:00;;;;;;;9.80;8.80;;;;;;;;;;4883182;29;20744;-76
2023/08/19 10:16:46;;;;;;;10.43;9.33;;;;;;;;;;4914295;29;20888;-76
2023/08/19 10:19:13;;;;;;;10.77;9.73;;;;;;;;;;4915407;29;20624;-76
2023/08/19 10:21:58;;;;;;;11.27;10.07;;;;;;;;;;4915399;29;20258;-76
2023/08/19 10:24:25;;;;;;;10.40;9.13;;;;;;;;;;4882999;29;20567;-76
2023/08/19 10:26:52;;;;;;;9.60;8.67;;;;;;;;;;4913651;29;20223;-76
2023/08/19 10:29:18;;;;;;;10.60;9.50;;;;;;;;;;4914988;29;20195;-76
2023/08/19 10:31:45;;;;;;;9.20;8.30;;;;;;;;;;4913582;29;20195;-76
2023/08/19 10:34:30;;;;;;;12.67;11.20;;;;;;;;;;4932895;29;20190;-75
2023/08/19 10:37:07;;;;;;;11.23;10.13;;;;;;;;;;4934264;29;20191;-75
2023/08/19 10:39:35;;;;;;;10.00;9.00;;;;;;;;;;4931067;29;20680;-76
2023/08/19 10:42:02;;;;;;;10.83;9.77;;;;;;;;;;4933441;29;20306;-75
2023/08/19 10:44:31;;;;;;;13.33;11.53;;;;;;;;;;4933906;29;20278;-75
2023/08/19 10:47:09;;;;;;;11.37;10.27;;;;;;;;;;4932177;29;20234;-75
2023/08/19 10:49:36;;;;;;;6.43;5.57;;;;;;;;;;4932375;29;20262;-75
2023/08/19 10:52:04;;;;;;;10.57;9.57;;;;;;;;;;4948322;29;20209;-75
2023/08/19 10:54:38;;;;;;;10.60;9.60;;;;;;;;;;4923773;29;20218;-76
2023/08/19 10:57:12;;;;;;;11.50;9.00;;;;;;;;;;4913119;29;20195;-76
2023/08/19 10:59:42;;;;;;;9.83;8.93;;;;;;;;;;4929057;29;20255;-76
2023/08/19 11:02:27;;;;;;;8.93;8.13;;;;;;;;;;4913589;29;20708;-75
2023/08/19 11:04:57;;;;;;;11.70;10.60;;;;;;;;;;4928425;29;20774;-76
2023/08/19 11:07:25;;;;;;;13.00;11.23;;;;;;;;;;4897922;29;20568;-75
2023/08/19 11:09:52;;;;;;;10.73;9.83;;;;;;;;;;4913465;29;20227;-76
2023/08/19 11:12:20;;;;;;;12.03;10.93;;;;;;;;;;4921031;29;20685;-75
2023/08/19 11:14:47;;;;;;;15.33;11.83;;;;;;;;;;4932128;29;20193;-75
2023/08/19 11:17:14;;;;;;;12.40;11.20;;;;;;;;;;4947697;29;20195;-75
2023/08/19 11:19:42;;;;;;;12.63;11.03;;;;;;;;;;4933310;29;20183;-75
2023/08/19 11:22:13;;;;;;;13.03;11.20;;;;;;;;;;4948145;29;20273;-75
2023/08/19 11:24:40;;;;;;;12.60;11.40;;;;;;;;;;4947872;29;20214;-75
2023/08/19 11:27:07;;;;;;;13.53;11.50;;;;;;;;;;4931612;29;20219;-75
2023/08/19 11:29:55;;;;;;;16.47;11.70;;;;;;;;;;4933052;29;20776;-75
2023/08/19 11:32:22;;;;;;;13.80;11.33;;;;;;;;;;4932676;29;20187;-76
2023/08/19 11:34:49;;;;;;;14.00;11.53;;;;;;;;;;4932739;29;20190;-76
2023/08/19 11:37:16;;;;;;;15.23;11.60;;;;;;;;;;4933025;29;20195;-75
2023/08/19 11:39:44;;;;;;;12.60;11.13;;;;;;;;;;4932702;29;20191;-76
2023/08/19 11:42:11;;;;;;;13.40;12.07;;;;;;;;;;4915901;29;20943;-76
2023/08/19 11:44:41;;;;;;;14.03;12.03;;;;;;;;;;4932992;29;20214;-76
2023/08/19 11:47:08;;;;;;;11.47;10.30;;;;;;;;;;4915424;29;20235;-75
2023/08/19 11:49:52;;;;;;;11.90;10.90;;;;;;;;;;4932773;29;20178;-76
2023/08/19 11:52:19;;;;;;;10.40;9.40;;;;;;;;;;4932702;29;20298;-76
2023/08/19 11:55:13;;;;;;;10.03;9.03;;;;;;;;;;4931471;29;20282;-75
2023/08/19 11:57:40;;;;;;;13.13;11.27;;;;;;;;;;4918281;29;20212;-76
2023/08/19 12:00:13;;;;;;;14.17;12.40;;;;;;;;;;4912834;29;20247;-76
2023/08/19 12:02:40;;;;;;;12.60;11.30;;;;;;;;;;4913925;29;20556;-75
2023/08/19 12:05:07;;;;;;;13.60;11.20;;;;;;;;;;4897059;29;20191;-75
2023/08/19 12:07:35;;;;;;;11.50;10.23;;;;;;;;;;4919539;29;20295;-76
2023/08/19 12:10:03;;;;;;;10.97;9.90;;;;;;;;;;4932978;29;20202;-75
2023/08/19 12:12:30;;;;;;;10.93;9.83;;;;;;;;;;4930754;29;20191;-76
2023/08/19 12:14:58;;;;;;;12.20;11.00;;;;;;;;;;4931550;29;20199;-75
2023/08/19 12:17:25;;;;;;;13.57;12.17;;;;;;;;;;4932316;29;20199;-76
2023/08/19 12:19:52;;;;;;;12.60;11.17;;;;;;;;;;4931216;29;20191;-75
2023/08/19 12:22:22;;;;;;;13.60;10.80;;;;;;;;;;4931066;29;20187;-76
2023/08/19 12:24:50;;;;;;;12.77;11.07;;;;;;;;;;4929217;29;20246;-76
2023/08/19 12:27:16;;;;;;;11.73;10.53;;;;;;;;;;4932265;29;20250;-76
2023/08/19 12:29:43;;;;;;;11.33;10.23;;;;;;;;;;4932169;29;20268;-75
2023/08/19 12:32:10;;;;;;;12.23;11.10;;;;;;;;;;4931299;29;20250;-75
2023/08/19 12:34:37;;;;;;;13.80;11.20;;;;;;;;;;4912042;29;20183;-76
2023/08/19 12:37:04;;;;;;;13.03;11.60;;;;;;;;;;4913551;29;20592;-75
2023/08/19 12:39:31;;;;;;;12.67;11.30;;;;;;;;;;4926352;29;20222;-75
2023/08/19 12:42:01;;;;;;;12.83;10.60;;;;;;;;;;4931253;29;20187;-76
2023/08/19 12:44:28;;;;;;;11.67;10.47;;;;;;;;;;4932029;29;20218;-75
2023/08/19 12:46:56;;;;;;;10.50;9.37;;;;;;;;;;4930911;29;20314;-75
2023/08/19 12:49:23;;;;;;;11.00;9.60;;;;;;;;;;4932431;29;20202;-76
2023/08/19 12:51:50;;;;;;;11.20;8.80;;;;;;;;;;4931013;29;20202;-76
2023/08/19 12:54:17;;;;;;;9.77;8.77;;;;;;;;;;4930736;29;20239;-76
2023/08/19 12:56:43;;;;;;;9.93;8.37;;;;;;;;;;4930524;29;20198;-75
2023/08/19 12:59:11;;;;;;;9.00;8.10;;;;;;;;;;4929738;29;20191;-79
2023/08/19 13:01:38;;;;;;;8.17;7.47;;;;;;;;;;4914294;29;20207;-74
2023/08/19 13:04:05;;;;;;;8.30;7.60;;;;;;;;;;4922363;29;20666;-75
2023/08/19 13:06:33;;;;;;;9.63;7.40;;;;;;;;;;4916203;29;20654;-75
2023/08/19 13:09:00;;;;;;;13.00;7.27;;;;;;;;;;4943315;29;20194;-75
2023/08/19 13:11:27;;;;;;;10.07;7.27;;;;;;;;;;4913137;29;20218;-76
2023/08/19 13:13:54;;;;;;;8.43;7.10;;;;;;;;;;4911268;29;20183;-76
2023/08/19 13:16:21;;;;;;;7.37;6.77;;;;;;;;;;4925744;29;20298;-76
2023/08/19 13:18:49;;;;;;;8.90;8.13;;;;;;;;;;4922806;29;20199;-76
2023/08/19 13:21:15;;;;;;;9.37;8.47;;;;;;;;;;4919128;29;20206;-76
2023/08/19 13:23:42;;;;;;;8.47;7.73;;;;;;;;;;4918024;29;20210;-76
2023/08/19 13:26:09;;;;;;;8.57;7.67;;;;;;;;;;4918705;29;20199;-76
2023/08/19 13:28:40;;;;;;;8.60;7.77;;;;;;;;;;4929258;29;20218;-75
2023/08/19 13:31:07;;;;;;;9.20;8.30;;;;;;;;;;4926821;29;20230;-75
2023/08/19 13:33:34;;;;;;;8.63;7.83;;;;;;;;;;4929320;29;20206;-75
2023/08/19 13:36:01;;;;;;;8.87;7.97;;;;;;;;;;4920199;29;21059;-75
2023/08/19 13:38:32;;;;;;;9.03;8.10;;;;;;;;;;4942010;29;20258;-75
2023/08/19 13:40:59;;;;;;;9.83;8.40;;;;;;;;;;4931436;29;20261;-75
2023/08/19 13:43:25;;;;;;;9.97;9.00;;;;;;;;;;4932975;29;20289;-75
2023/08/19 13:45:52;;;;;;;9.67;8.67;;;;;;;;;;4919182;29;20320;-75
2023/08/19 13:48:19;;;;;;;10.47;9.47;;;;;;;;;;4901729;29;20217;-74
2023/08/19 13:50:46;;;;;;;10.73;9.67;;;;;;;;;;4903304;29;20218;-74
2023/08/19 13:53:17;;;;;;;11.53;10.43;;;;;;;;;;4903340;29;20726;-74
2023/08/19 13:55:47;;;;;;;10.57;9.67;;;;;;;;;;4912976;29;20663;-74
2023/08/19 13:58:14;;;;;;;10.13;9.27;;;;;;;;;;4898785;29;20192;-75
2023/08/19 14:00:42;;;;;;;11.80;10.57;;;;;;;;;;4909139;29;20195;-75
2023/08/19 14:03:18;;;;;;;11.60;10.40;;;;;;;;;;4893788;29;20191;-75
2023/08/19 14:05:51;;;;;;;11.37;10.23;;;;;;;;;;4900103;29;20195;-75
2023/08/19 14:08:18;;;;;;;11.07;10.07;;;;;;;;;;4904116;29;20777;-78
2023/08/19 14:10:51;;;;;;;12.67;10.47;;;;;;;;;;4906892;29;20257;-74
2023/08/19 14:13:19;;;;;;;11.67;10.53;;;;;;;;;;4913638;29;20207;-74
2023/08/19 14:15:46;;;;;;;11.97;10.67;;;;;;;;;;4911804;29;20198;-74
2023/08/19 14:18:13;;;;;;;13.57;12.20;;;;;;;;;;4897105;29;20185;-75
2023/08/19 14:20:41;;;;;;;13.27;11.90;;;;;;;;;;4898368;29;20778;-74
2023/08/19 14:23:08;;;;;;;15.13;12.40;;;;;;;;;;4895863;29;20685;-75
2023/08/19 14:25:35;;;;;;;14.73;12.57;;;;;;;;;;4904071;29;20794;-75
2023/08/19 14:28:02;;;;;;;15.10;13.60;;;;;;;;;;4897376;29;20243;-73
2023/08/19 14:30:29;;;;;;;16.73;13.63;;;;;;;;;;4896446;28;20192;-73
2023/08/19 14:32:56;;;;;;;18.80;13.60;;;;;;;;;;4919145;29;20195;-74
2023/08/19 14:35:25;;;;;;;16.30;14.60;;;;;;;;;;4924082;29;20215;-78
2023/08/19 14:37:54;;;;;;;15.53;13.83;;;;;;;;;;4925526;29;20202;-78
2023/08/19 14:40:25;;;;;;;17.03;14.33;;;;;;;;;;4907146;29;20211;-74
2023/08/19 14:42:54;;;;;;;20.80;15.33;;;;;;;;;;4909972;29;20287;-73
2023/08/19 14:45:22;;;;;;;18.33;16.53;;;;;;;;;;4899954;29;21121;-73
2023/08/19 14:47:49;;;;;;;17.33;15.10;;;;;;;;;;4923205;29;20239;-73
2023/08/19 14:50:16;;;;;;;17.73;15.93;;;;;;;;;;4897131;29;20238;-73
2023/08/19 14:52:43;;;;;;;17.67;15.87;;;;;;;;;;4931098;29;20221;-73
2023/08/19 14:55:10;;;;;;;19.13;17.13;;;;;;;;;;4922227;29;20206;-73
2023/08/19 14:57:37;;;;;;;17.90;16.10;;;;;;;;;;4931623;29;20665;-73
2023/08/19 15:00:06;;;;;;;18.97;16.33;;;;;;;;;;4928940;29;20195;-73
2023/08/19 15:02:43;;;;;;;18.00;16.10;;;;;;;;;;4922002;29;20204;-73
2023/08/19 15:05:10;;;;;;;17.97;15.60;;;;;;;;;;4926832;29;20224;-73
2023/08/19 15:07:37;;;;;;;15.87;14.20;;;;;;;;;;4928766;29;21867;-74
2023/08/19 15:10:04;;;;;;;17.07;15.27;;;;;;;;;;4927906;29;20206;-74